Time;durP1;ratioP1;P1;durP2;ratioP2;P2;SDS_P1;SDS_P2;PMS_P1;PMS_P2;Temp;Humidity;BMP_temperature;BMP_pressure;BME280_temperature;BME280_humidity;BME280_pressure;Samples;Min_cycle;Max_cycle;Signal;HPM_P1;HPM_P2
2021/12/18 00:02:13;;;;;;;3.08;0.78;;;;;;;0.88;100.00;99826.59;1739086;82;21134;-64
2021/12/18 00:04:40;;;;;;;2.55;0.88;;;;;;;0.89;100.00;99826.36;1739442;82;21015;-64
2021/12/18 00:07:06;;;;;;;2.33;0.88;;;;;;;0.89;100.00;99825.53;1739160;82;21043;-64
2021/12/18 00:09:33;;;;;;;2.08;0.80;;;;;;;0.92;100.00;99831.30;1739521;82;21031;-64
2021/12/18 00:12:00;;;;;;;2.42;0.80;;;;;;;0.95;100.00;99830.09;1739201;82;21790;-64
2021/12/18 00:14:27;;;;;;;2.25;1.00;;;;;;;0.91;100.00;99825.66;1718260;82;21043;-63
2021/12/18 00:16:53;;;;;;;1.32;0.62;;;;;;;0.90;100.00;99831.21;1739332;82;21063;-65
2021/12/18 00:19:25;;;;;;;2.02;0.75;;;;;;;0.89;100.00;99823.69;1739108;81;21032;-64
2021/12/18 00:21:49;;;;;;;1.80;0.80;;;;;;;0.90;100.00;99828.53;1739037;82;21047;-64
2021/12/18 00:24:16;;;;;;;1.57;0.70;;;;;;;0.86;100.00;99828.63;1739373;82;21019;-64
2021/12/18 00:26:42;;;;;;;1.75;0.70;;;;;;;0.90;100.00;99830.70;1739420;82;21099;-63
2021/12/18 00:29:08;;;;;;;2.15;0.70;;;;;;;0.89;100.00;99832.23;1739376;82;21530;-65
2021/12/18 00:31:36;;;;;;;2.02;0.80;;;;;;;0.84;100.00;99839.58;1739048;82;21075;-63
2021/12/18 00:34:02;;;;;;;1.72;0.60;;;;;;;0.84;100.00;99840.91;1739307;82;21554;-62
2021/12/18 00:36:29;;;;;;;1.77;0.70;;;;;;;0.86;100.00;99839.35;1739069;82;21063;-64
2021/12/18 00:38:55;;;;;;;1.67;0.72;;;;;;;0.85;100.00;99849.24;1739204;82;20996;-64
2021/12/18 00:44:01;;;;;;;1.50;0.70;;;;;;;0.84;100.00;99850.81;1738949;82;21094;-63
2021/12/18 00:46:37;;;;;;;1.45;0.45;;;;;;;0.83;100.00;99851.31;1739239;82;21012;-64
2021/12/18 00:49:04;;;;;;;2.58;0.80;;;;;;;0.78;100.00;99847.08;1739163;82;21094;-64
2021/12/18 00:51:31;;;;;;;2.85;0.82;;;;;;;0.78;100.00;99846.28;1739257;82;21526;-64
2021/12/18 00:53:57;;;;;;;1.70;0.60;;;;;;;0.75;100.00;99854.19;1739402;82;21071;-64
2021/12/18 00:56:25;;;;;;;1.50;0.60;;;;;;;0.72;100.00;99852.44;1739034;82;21545;-64
2021/12/18 00:58:52;;;;;;;1.52;0.60;;;;;;;0.76;100.00;99863.06;1739137;82;21055;-64
2021/12/18 01:01:20;;;;;;;1.67;0.42;;;;;;;0.76;100.00;99857.19;1738964;82;21066;-64
2021/12/18 01:03:48;;;;;;;3.10;0.65;;;;;;;0.70;100.00;99847.30;1739123;82;21047;-64
2021/12/18 01:06:17;;;;;;;1.60;0.60;;;;;;;0.70;100.00;99853.17;1739152;82;21099;-64
2021/12/18 01:08:44;;;;;;;1.98;0.72;;;;;;;0.73;100.00;99861.63;1739279;82;21040;-65
2021/12/18 01:16:18;;;;;;;2.17;0.50;;;;;;;0.62;100.00;99873.45;1711319;82;21027;-64
2021/12/18 01:23:56;;;;;;;1.70;0.60;;;;;;;0.62;100.00;99870.27;1739268;82;21059;-63
2021/12/18 01:26:23;;;;;;;2.52;0.65;;;;;;;0.63;100.00;99869.25;1739038;82;21015;-64
2021/12/18 01:28:49;;;;;;;3.20;0.78;;;;;;;0.64;100.00;99870.08;1739276;82;21039;-64
2021/12/18 01:31:15;;;;;;;1.60;0.80;;;;;;;0.59;100.00;99869.84;1739398;82;21091;-63
2021/12/18 01:33:43;;;;;;;1.70;0.50;;;;;;;0.60;100.00;99864.81;1738862;82;21090;-64
2021/12/18 01:36:10;;;;;;;1.32;0.40;;;;;;;0.63;100.00;99869.25;1739226;82;21051;-64
2021/12/18 01:38:36;;;;;;;3.40;0.90;;;;;;;0.61;100.00;99866.44;1739560;82;21067;-63
2021/12/18 01:41:03;;;;;;;1.45;0.60;;;;;;;0.59;100.00;99880.56;1739425;82;21007;-64
2021/12/18 01:44:20;;;;;;;1.57;0.60;;;;;;;0.61;100.00;99876.64;1739054;82;21016;-64
2021/12/18 01:51:48;;;;;;;1.50;0.60;;;;;;;0.55;100.00;99879.32;1738977;82;21668;-64
2021/12/18 01:54:00;;;;;;;1.85;0.50;;;;;;;0.53;100.00;99884.90;1735359;82;21530;-63
2021/12/18 01:56:27;;;;;;;3.00;0.60;;;;;;;0.52;100.00;99891.78;1739288;82;21118;-64
2021/12/18 01:58:54;;;;;;;1.12;0.47;;;;;;;0.55;100.00;99889.52;1739184;82;21495;-64
2021/12/18 02:01:21;;;;;;;2.02;0.70;;;;;;;0.56;100.00;99893.03;1739292;82;21030;-62
2021/12/18 02:03:47;;;;;;;2.05;0.50;;;;;;;0.52;100.00;99887.77;1739361;82;20980;-64
2021/12/18 02:06:15;;;;;;;2.80;1.07;;;;;;;0.54;100.00;99893.22;1739366;82;21071;-64
2021/12/18 02:08:43;;;;;;;1.45;0.60;;;;;;;0.53;100.00;99891.59;1739358;82;21003;-64
2021/12/18 02:11:23;;;;;;;1.45;0.60;;;;;;;0.52;100.00;99892.61;1739222;82;21455;-64
2021/12/18 02:14:06;;;;;;;1.85;0.50;;;;;;;0.51;100.00;99888.27;1737509;82;21031;-63
2021/12/18 02:21:46;;;;;;;1.45;0.53;;;;;;;0.49;100.00;99899.21;1753179;82;21558;-63
2021/12/18 02:24:14;;;;;;;2.75;0.40;;;;;;;0.53;100.00;99898.80;1753565;82;21046;-64
2021/12/18 02:26:40;;;;;;;1.80;0.40;;;;;;;0.53;100.00;99894.27;1753425;82;21525;-63
2021/12/18 02:29:10;;;;;;;1.30;0.40;;;;;;;0.53;100.00;99912.19;1753307;82;21105;-64
2021/12/18 02:31:35;;;;;;;0.95;0.40;;;;;;;0.53;100.00;99902.30;1753035;82;21065;-64
2021/12/18 02:34:03;;;;;;;1.02;0.40;;;;;;;0.53;100.00;99909.52;1753385;82;21807;-64
2021/12/18 02:36:31;;;;;;;0.98;0.40;;;;;;;0.55;100.00;99911.46;1753216;82;21533;-64
2021/12/18 02:39:16;;;;;;;1.37;0.30;;;;;;;0.52;100.00;99911.36;1753011;82;21557;-64
2021/12/18 02:41:37;;;;;;;0.60;0.25;;;;;;;0.52;100.00;99909.19;1749264;82;21046;-64
2021/12/18 02:44:09;;;;;;;0.98;0.30;;;;;;;0.53;100.00;99913.53;1752918;82;21011;-64
2021/12/18 02:46:38;;;;;;;0.95;0.50;;;;;;;0.54;100.00;99915.98;1753382;82;21082;-64
2021/12/18 02:49:14;;;;;;;0.70;0.40;;;;;;;0.55;100.00;99921.67;1753168;81;20967;-64
2021/12/18 02:51:41;;;;;;;0.90;0.40;;;;;;;0.52;100.00;99917.23;1753615;82;21073;-64
2021/12/18 02:54:07;;;;;;;1.35;0.40;;;;;;;0.49;100.00;99920.64;1753533;82;21027;-64
2021/12/18 02:56:33;;;;;;;1.40;0.23;;;;;;;0.50;100.00;99920.93;1753271;82;21568;-64
2021/12/18 02:59:07;;;;;;;0.80;0.40;;;;;;;0.51;100.00;99925.77;1753407;82;21026;-64
2021/12/18 03:01:36;;;;;;;0.82;0.30;;;;;;;0.50;100.00;99925.45;1753182;82;21675;-64
2021/12/18 03:04:12;;;;;;;1.45;0.45;;;;;;;0.50;100.00;99922.27;1753312;82;21462;-64
2021/12/18 03:06:36;;;;;;;1.07;0.40;;;;;;;0.49;100.00;99923.83;1751524;82;21067;-64
2021/12/18 03:27:18;;;;;;;1.25;0.53;;;;;;;0.30;100.00;99952.69;1753031;82;21058;-64
2021/12/18 03:29:44;;;;;;;1.70;0.80;;;;;;;0.25;100.00;99949.81;1753384;82;21736;-63
2021/12/18 03:32:11;;;;;;;1.05;0.62;;;;;;;0.26;100.00;99951.44;1753296;82;21031;-64
2021/12/18 03:34:37;;;;;;;1.50;0.80;;;;;;;0.20;100.00;99959.77;1753635;82;21007;-64
2021/12/18 03:37:04;;;;;;;1.20;0.60;;;;;;;0.17;100.00;99962.02;1753390;82;21542;-63
2021/12/18 03:39:31;;;;;;;;;;;;;;;0.18;100.00;99969.84;1755940;82;21008;-64
2021/12/18 03:41:58;;;;;;;1.70;0.72;;;;;;;0.16;100.00;99963.03;1753268;82;20107;-63
2021/12/18 03:44:24;;;;;;;1.35;0.60;;;;;;;0.05;100.00;99979.15;1753394;82;21047;-64
2021/12/18 03:46:52;;;;;;;2.40;0.80;;;;;;;0.09;100.00;99975.05;1752949;82;21035;-64
2021/12/18 03:49:18;;;;;;;1.20;0.40;;;;;;;0.09;100.00;99976.91;1753445;82;21605;-64
2021/12/18 03:51:44;;;;;;;1.22;0.60;;;;;;;0.06;100.00;99970.61;1753159;82;21039;-64
2021/12/18 03:54:11;;;;;;;1.82;0.70;;;;;;;0.08;100.00;99967.21;1753690;82;21577;-63
2021/12/18 03:56:37;;;;;;;1.42;0.50;;;;;;;0.13;100.00;99977.66;1753357;82;21369;-64
2021/12/18 03:59:03;;;;;;;0.98;0.40;;;;;;;0.13;100.00;99972.80;1753622;82;21062;-64
2021/12/18 04:01:31;;;;;;;0.80;0.30;;;;;;;0.11;100.00;99974.88;1753035;82;21569;-63
2021/12/18 04:03:58;;;;;;;;;;;;;;;0.13;100.00;99976.31;1755582;82;21070;-64
2021/12/18 04:06:24;;;;;;;1.67;0.45;;;;;;;0.14;100.00;99977.98;1753040;82;20158;-64
2021/12/18 04:08:51;;;;;;;1.42;0.42;;;;;;;0.11;100.00;99973.53;1753204;82;21039;-64
2021/12/18 04:11:17;;;;;;;1.07;0.40;;;;;;;0.13;100.00;99976.82;1753090;82;21019;-64
2021/12/18 04:13:46;;;;;;;0.75;0.40;;;;;;;0.13;100.00;99974.98;1753004;82;21046;-65
2021/12/18 04:16:13;;;;;;;1.30;0.50;;;;;;;0.17;100.00;99970.88;1753175;82;21156;-64
2021/12/18 04:18:40;;;;;;;1.20;0.50;;;;;;;0.20;100.00;99977.17;1753521;82;20999;-64
2021/12/18 04:21:08;;;;;;;1.40;0.45;;;;;;;0.20;100.00;99968.31;1753201;81;21094;-64
2021/12/18 04:23:35;;;;;;;0.65;0.40;;;;;;;0.19;100.00;99976.85;1753293;82;20999;-63
2021/12/18 04:26:01;;;;;;;0.62;0.35;;;;;;;0.19;100.00;99978.19;1753242;82;21522;-64
2021/12/18 04:28:27;;;;;;;;;;;;;;;0.17;100.00;99985.61;1755609;82;21074;-63
2021/12/18 04:30:54;;;;;;;0.72;0.30;;;;;;;0.15;100.00;99982.28;1752982;82;20138;-64
2021/12/18 04:33:20;;;;;;;;;;;;;;;0.09;100.00;99984.42;1755895;82;21032;-64
2021/12/18 04:35:47;;;;;;;1.65;0.50;;;;;;;0.09;100.00;99986.27;1753074;82;20106;-64
2021/12/18 04:38:13;;;;;;;0.95;0.40;;;;;;;0.08;100.00;99988.12;1753503;82;21577;-64
2021/12/18 04:40:42;;;;;;;2.90;1.00;;;;;;;0.05;100.00;99989.86;1753016;82;21062;-64
2021/12/18 04:43:09;;;;;;;1.70;0.57;;;;;;;0.04;100.00;100007.47;1753107;82;21067;-64
2021/12/18 04:45:35;;;;;;;1.98;0.82;;;;;;;0.03;100.00;99990.58;1753202;82;21102;-64
2021/12/18 04:48:03;;;;;;;2.95;1.30;;;;;;;0.03;100.00;100000.45;1753257;82;21103;-64
2021/12/18 04:50:29;;;;;;;2.37;1.02;;;;;;;0.04;100.00;99990.07;1753053;82;21086;-63
2021/12/18 04:52:56;;;;;;;;;;;;;;;0.06;100.00;99998.21;1755832;82;21109;-64
2021/12/18 04:55:22;;;;;;;1.40;0.60;;;;;;;0.08;100.00;100001.50;1753090;82;20114;-64
2021/12/18 04:57:49;;;;;;;1.42;0.70;;;;;;;0.04;100.00;100000.78;1753121;82;21086;-64
2021/12/18 05:00:16;;;;;;;1.98;0.93;;;;;;;0.07;100.00;100003.05;1753130;82;21011;-64
2021/12/18 05:02:44;;;;;;;1.50;0.60;;;;;;;0.09;100.00;100003.16;1753091;82;21664;-64
2021/12/18 05:05:13;;;;;;;1.17;0.47;;;;;;;0.09;100.00;100004.50;1753180;82;21082;-64
2021/12/18 05:07:42;;;;;;;1.40;0.68;;;;;;;0.12;100.00;100012.12;1753213;82;21098;-64
2021/12/18 05:10:09;;;;;;;1.62;0.60;;;;;;;0.11;100.00;100015.83;1753404;82;21070;-64
2021/12/18 05:12:37;;;;;;;1.70;0.68;;;;;;;0.14;100.00;100016.80;1753018;82;21190;-64
2021/12/18 05:15:07;;;;;;;2.77;0.70;;;;;;;0.13;100.00;100012.96;1753377;82;21062;-63
2021/12/18 05:17:34;;;;;;;1.55;0.60;;;;;;;0.12;100.00;100016.14;1752438;82;21098;-63
2021/12/18 05:20:00;;;;;;;2.08;0.68;;;;;;;0.13;100.00;100018.31;1753395;81;21121;-64
2021/12/18 05:22:26;;;;;;;;;;;;;;;0.11;100.00;100011.01;1755550;82;21989;-65
2021/12/18 05:24:53;;;;;;;2.17;0.90;;;;;;;0.12;100.00;100024.69;1753228;82;20134;-64
2021/12/18 05:27:20;;;;;;;2.00;0.95;;;;;;;0.08;100.00;100027.44;1753139;82;21601;-64
2021/12/18 05:29:46;;;;;;;;;;;;;;;0.06;100.00;100033.00;1755853;82;21015;-64
2021/12/18 05:32:13;;;;;;;2.20;0.90;;;;;;;0.05;100.00;100038.03;1753118;82;20095;-64
2021/12/18 05:34:40;;;;;;;;;;;;;;;0.03;100.00;100045.95;1755852;82;21046;-65
2021/12/18 05:37:30;;;;;;;2.92;0.85;;;;;;;0.04;100.00;100054.31;1753099;82;20429;-63
2021/12/18 05:39:47;;;;;;;1.65;0.62;;;;;;;0.00;100.00;100049.86;1750744;82;21021;-64
2021/12/18 05:42:14;;;;;;;0.88;0.50;;;;;;;-0.01;100.00;100046.35;1753417;82;21114;-65
2021/12/18 05:44:41;;;;;;;1.82;0.50;;;;;;;0.04;100.00;100059.12;1753373;82;21005;-64
2021/12/18 05:47:08;;;;;;;1.10;0.50;;;;;;;0.06;100.00;100065.63;1753301;82;21039;-65
2021/12/18 05:49:35;;;;;;;1.20;0.40;;;;;;;0.08;100.00;100071.09;1753342;82;21024;-65
2021/12/18 05:52:04;;;;;;;0.62;0.30;;;;;;;0.07;100.00;100068.13;1753349;82;21046;-64
2021/12/18 05:54:34;;;;;;;1.62;0.37;;;;;;;0.09;100.00;100074.09;1753670;82;20951;-65
2021/12/18 05:56:59;;;;;;;1.00;0.50;;;;;;;0.13;100.00;100075.88;1752763;82;21051;-63
2021/12/18 05:59:25;;;;;;;1.40;0.80;;;;;;;0.17;100.00;100077.97;1753488;82;21560;-64
2021/12/18 06:01:51;;;;;;;2.72;0.62;;;;;;;0.17;100.00;100081.98;1753290;82;21090;-65
2021/12/18 06:04:17;;;;;;;1.62;0.60;;;;;;;0.17;100.00;100081.16;1753513;82;21006;-65
2021/12/18 06:06:44;;;;;;;1.65;0.50;;;;;;;0.16;100.00;100085.67;1753352;82;21098;-65
2021/12/18 06:10:45;;;;;;;1.87;0.80;;;;;;;0.24;100.00;100082.02;1801479;79;22881;-64
2021/12/18 06:13:12;;;;;;;1.82;0.55;;;;;;;0.18;100.00;100078.80;1753426;81;21071;-63
2021/12/18 06:15:39;;;;;;;2.47;0.90;;;;;;;0.21;100.00;100081.08;1753087;82;21739;-65
2021/12/18 06:18:06;;;;;;;2.10;0.55;;;;;;;0.20;100.00;100084.27;1752956;82;21047;-64
2021/12/18 06:20:32;;;;;;;1.52;0.70;;;;;;;0.15;100.00;100088.03;1753005;82;21581;-64
2021/12/18 06:22:59;;;;;;;2.00;0.82;;;;;;;0.03;100.00;100088.78;1753091;82;21043;-64
2021/12/18 06:25:25;;;;;;;1.20;0.80;;;;;;;-0.01;100.00;100081.66;1752901;82;21624;-64
2021/12/18 06:27:52;;;;;;;2.02;0.85;;;;;;;-0.07;100.00;100088.59;1753037;82;21055;-63
2021/12/18 06:30:19;;;;;;;2.55;0.82;;;;;;;-0.12;100.00;100094.23;1753110;81;21090;-64
2021/12/18 06:32:46;;;;;;;2.12;0.80;;;;;;;-0.13;100.00;100096.58;1752925;82;21062;-64
2021/12/18 06:35:13;;;;;;;1.98;1.00;;;;;;;-0.08;100.00;100096.33;1753088;82;21506;-64
2021/12/18 06:37:40;;;;;;;;;;;;;;;-0.09;100.00;100095.17;1755705;82;21019;-64
2021/12/18 06:40:07;;;;;;;1.50;0.80;;;;;;;-0.10;100.00;100096.19;1753250;81;20098;-65
2021/12/18 06:42:34;;;;;;;2.65;0.72;;;;;;;-0.12;100.00;100096.91;1753058;82;21047;-65
2021/12/18 06:45:00;;;;;;;1.82;1.07;;;;;;;-0.11;100.00;100097.23;1753283;82;21038;-64
2021/12/18 06:47:26;;;;;;;2.50;0.98;;;;;;;-0.12;100.00;100100.41;1752961;82;21043;-64
2021/12/18 06:49:53;;;;;;;1.55;0.70;;;;;;;-0.12;100.00;100102.25;1753060;82;21090;-64
2021/12/18 06:52:19;;;;;;;1.60;0.90;;;;;;;-0.05;100.00;100097.27;1753071;82;21708;-64
2021/12/18 06:54:45;;;;;;;;;;;;;;;-0.02;100.00;100101.41;1755471;82;21110;-64
2021/12/18 06:57:12;;;;;;;2.02;0.90;;;;;;;0.02;100.00;100094.64;1753084;81;20103;-64
2021/12/18 06:59:38;;;;;;;2.20;0.90;;;;;;;0.05;100.00;100105.46;1752990;82;21118;-64
2021/12/18 07:02:04;;;;;;;1.85;0.85;;;;;;;0.05;100.00;100115.66;1753405;82;21023;-64
2021/12/18 07:04:33;;;;;;;1.90;0.62;;;;;;;-0.02;100.00;100103.57;1752706;82;21097;-65
2021/12/18 07:06:59;;;;;;;1.10;0.62;;;;;;;0.00;100.00;100101.52;1753140;81;21082;-63
2021/12/18 07:09:25;;;;;;;2.12;0.70;;;;;;;0.02;100.00;100109.87;1753248;81;21082;-64
2021/12/18 07:11:52;;;;;;;2.22;1.00;;;;;;;0.01;100.00;100107.70;1754152;82;21039;-64
2021/12/18 07:14:19;;;;;;;1.60;0.80;;;;;;;0.01;100.00;100106.36;1753671;82;21077;-61
2021/12/18 07:16:45;;;;;;;2.42;1.00;;;;;;;-0.02;100.00;100109.43;1753982;82;21039;-63
2021/12/18 07:19:11;;;;;;;1.67;1.10;;;;;;;0.00;100.00;100113.56;1753825;82;21094;-64
2021/12/18 07:21:37;;;;;;;2.12;0.80;;;;;;;0.00;100.00;100111.42;1753444;82;21098;-64
2021/12/18 07:24:05;;;;;;;3.20;0.90;;;;;;;-0.02;100.00;100115.62;1753138;82;21581;-64
2021/12/18 07:26:32;;;;;;;2.35;0.90;;;;;;;0.00;100.00;100118.91;1753317;82;21055;-63
2021/12/18 07:29:00;;;;;;;2.17;1.27;;;;;;;-0.01;100.00;100117.78;1753088;82;21062;-64
2021/12/18 07:31:27;;;;;;;2.87;1.30;;;;;;;0.00;100.00;100116.77;1753472;82;21046;-64
2021/12/18 07:33:53;;;;;;;1.82;1.07;;;;;;;0.03;100.00;100116.38;1753343;81;21003;-64
2021/12/18 07:36:20;;;;;;;3.27;1.32;;;;;;;0.08;100.00;100121.95;1753491;82;21497;-64
2021/12/18 07:38:46;;;;;;;2.77;1.15;;;;;;;0.08;100.00;100121.95;1753129;82;21002;-64
2021/12/18 07:41:13;;;;;;;1.77;0.72;;;;;;;0.11;100.00;100130.94;1753594;82;21129;-65
2021/12/18 07:43:40;;;;;;;3.60;0.85;;;;;;;0.14;100.00;100127.06;1753082;82;21031;-64
2021/12/18 07:46:06;;;;;;;2.25;0.70;;;;;;;0.15;100.00;100124.68;1753200;82;21574;-64
2021/12/18 07:48:33;;;;;;;1.20;0.60;;;;;;;0.17;100.00;100134.19;1753547;82;21026;-64
2021/12/18 07:50:59;;;;;;;0.95;0.47;;;;;;;0.19;100.00;100130.80;1753162;82;21632;-64
2021/12/18 07:53:25;;;;;;;2.08;0.78;;;;;;;0.20;100.00;100148.53;1753398;82;21397;-65
2021/12/18 07:55:52;;;;;;;1.80;0.72;;;;;;;0.17;100.00;100136.04;1753285;82;21086;-65
2021/12/18 07:58:18;;;;;;;1.70;0.82;;;;;;;0.18;100.00;100140.38;1753421;82;21086;-64
2021/12/18 08:00:45;;;;;;;1.80;0.90;;;;;;;0.17;100.00;100138.72;1753059;82;21589;-64
2021/12/18 08:03:12;;;;;;;;;;;;;;;0.21;100.00;100142.66;1755815;82;21106;-64
2021/12/18 08:05:39;;;;;;;2.17;0.80;;;;;;;0.23;100.00;100144.11;1753040;82;20138;-64
2021/12/18 08:08:05;;;;;;;1.35;0.70;;;;;;;0.18;100.00;100148.41;1753234;82;21589;-65
2021/12/18 08:10:32;;;;;;;1.62;0.60;;;;;;;0.15;100.00;100148.27;1753043;81;21074;-64
2021/12/18 08:12:59;;;;;;;2.02;0.70;;;;;;;0.14;100.00;100150.65;1753093;81;21566;-64
2021/12/18 08:15:25;;;;;;;;;;;;;;;0.14;100.00;100161.87;1756104;82;21024;-65
2021/12/18 08:17:51;;;;;;;2.15;0.75;;;;;;;0.12;100.00;100154.52;1753103;82;20109;-64
2021/12/18 08:20:19;;;;;;;2.92;0.88;;;;;;;0.07;100.00;100159.65;1753253;82;21078;-64
2021/12/18 08:22:46;;;;;;;2.05;0.82;;;;;;;0.09;100.00;100150.90;1752922;82;21585;-64
2021/12/18 08:25:12;;;;;;;2.27;0.80;;;;;;;0.08;100.00;100151.41;1753214;82;21051;-64
2021/12/18 08:27:39;;;;;;;2.35;0.70;;;;;;;0.08;100.00;100152.74;1753047;82;21043;-64
2021/12/18 08:30:10;;;;;;;1.92;0.70;;;;;;;0.08;100.00;100157.27;1753184;82;21554;-64
2021/12/18 08:32:39;;;;;;;2.35;0.80;;;;;;;0.04;100.00;100146.12;1753163;82;21027;-64
2021/12/18 08:35:05;;;;;;;2.20;1.10;;;;;;;0.03;100.00;100148.50;1753340;82;21086;-64
2021/12/18 08:37:31;;;;;;;1.82;0.95;;;;;;;0.03;100.00;100147.67;1753153;82;21534;-64
2021/12/18 08:39:58;;;;;;;3.22;1.15;;;;;;;-0.03;100.00;100141.22;1753507;82;21054;-64
2021/12/18 08:42:25;;;;;;;1.62;0.82;;;;;;;-0.04;100.00;100147.62;1753196;82;21545;-64
2021/12/18 08:44:52;;;;;;;2.30;1.17;;;;;;;-0.06;100.00;100141.61;1753030;82;21539;-64
2021/12/18 08:47:19;;;;;;;2.15;1.07;;;;;;;-0.03;100.00;100132.69;1753406;82;21050;-65
2021/12/18 08:49:45;;;;;;;3.05;1.25;;;;;;;0.00;100.00;100136.31;1753101;82;21565;-65
2021/12/18 08:52:12;;;;;;;;;;;;;;;0.10;100.00;100127.97;1755810;82;21102;-64
2021/12/18 08:54:38;;;;;;;4.28;1.40;;;;;;;0.09;100.00;100129.48;1753045;82;20131;-64
2021/12/18 08:57:05;;;;;;;2.95;1.30;;;;;;;-0.03;100.00;100130.01;1753515;82;21094;-64
2021/12/18 08:59:32;;;;;;;3.10;1.60;;;;;;;-0.01;100.00;100133.34;1753432;82;21026;-64
2021/12/18 09:01:58;;;;;;;2.65;1.22;;;;;;;0.00;100.00;100135.51;1753351;82;21046;-64
2021/12/18 09:04:24;;;;;;;3.33;1.82;;;;;;;0.01;100.00;100123.76;1753490;82;21003;-64
2021/12/18 09:06:51;;;;;;;;;;;;;;;0.07;100.00;100128.86;1755635;82;21031;-64
2021/12/18 09:09:17;;;;;;;2.52;1.20;;;;;;;0.11;100.00;100128.26;1753114;82;20146;-64
2021/12/18 09:11:44;;;;;;;3.45;1.27;;;;;;;0.17;100.00;100134.19;1753223;82;21581;-64
2021/12/18 09:14:10;;;;;;;3.08;1.30;;;;;;;0.24;100.00;100132.39;1753386;82;20971;-65
2021/12/18 09:16:38;;;;;;;4.35;1.70;;;;;;;0.24;100.00;100131.05;1753220;82;21130;-64
2021/12/18 09:19:04;;;;;;;2.02;1.05;;;;;;;0.25;100.00;100127.87;1753527;82;20988;-65
2021/12/18 09:21:31;;;;;;;2.72;1.30;;;;;;;0.27;100.00;100127.14;1753087;82;21063;-65
2021/12/18 09:23:57;;;;;;;1.70;0.80;;;;;;;0.25;100.00;100121.97;1753321;82;21545;-65
2021/12/18 09:26:24;;;;;;;2.33;1.00;;;;;;;0.28;100.00;100122.11;1753130;82;21102;-64
2021/12/18 09:28:50;;;;;;;2.42;1.12;;;;;;;0.25;100.00;100120.64;1753471;82;21551;-65
2021/12/18 09:31:18;;;;;;;3.05;1.20;;;;;;;0.27;100.00;100118.61;1753094;82;21078;-63
2021/12/18 09:33:44;;;;;;;1.65;0.60;;;;;;;0.30;100.00;100124.91;1753378;82;20980;-64
2021/12/18 09:36:11;;;;;;;1.60;0.60;;;;;;;0.36;100.00;100126.79;1753220;82;21672;-65
2021/12/18 09:38:37;;;;;;;1.62;0.72;;;;;;;0.36;100.00;100121.44;1753583;82;20955;-64
2021/12/18 09:41:06;;;;;;;2.42;0.60;;;;;;;0.38;100.00;100126.09;1753422;82;21147;-65
2021/12/18 09:43:34;;;;;;;1.07;0.50;;;;;;;0.40;100.00;100118.68;1753410;82;21027;-64
2021/12/18 09:46:08;;;;;;;1.47;0.60;;;;;;;0.41;100.00;100122.19;1753390;82;21601;-64
2021/12/18 09:48:36;;;;;;;1.00;0.60;;;;;;;0.43;100.00;100115.61;1753306;82;20999;-64
2021/12/18 09:51:08;;;;;;;1.40;0.60;;;;;;;0.44;100.00;100111.08;1753003;82;21058;-64
2021/12/18 09:53:35;;;;;;;1.07;0.60;;;;;;;0.44;100.00;100111.08;1753356;82;21015;-64
2021/12/18 09:56:03;;;;;;;1.50;0.60;;;;;;;0.46;100.00;100111.73;1752929;82;21549;-65
2021/12/18 09:58:30;;;;;;;2.80;0.70;;;;;;;0.45;100.00;100098.84;1753214;82;21086;-64
2021/12/18 10:00:57;;;;;;;;;;;;;;;0.45;100.00;100105.53;1755849;82;21046;-64
2021/12/18 10:03:58;;;;;;;1.00;0.50;;;;;;;0.43;100.00;100101.37;1753444;82;20158;-64
2021/12/18 10:06:43;;;;;;;2.02;0.70;;;;;;;0.37;100.00;100103.01;1753128;82;21000;-64
2021/12/18 10:09:27;;;;;;;1.30;0.53;;;;;;;0.41;100.00;100094.06;1753219;82;21566;-64
2021/12/18 10:11:56;;;;;;;1.17;0.50;;;;;;;0.42;100.00;100096.56;1752918;82;21636;-64
2021/12/18 10:14:54;;;;;;;1.65;0.57;;;;;;;0.40;100.00;100080.35;1753172;82;21322;-64
2021/12/18 10:17:37;;;;;;;1.22;0.40;;;;;;;0.35;100.00;100080.97;1753313;82;21027;-64
2021/12/18 10:20:21;;;;;;;1.02;0.40;;;;;;;0.32;100.00;100070.63;1753117;81;21044;-65
2021/12/18 10:22:52;;;;;;;1.82;0.50;;;;;;;0.33;100.00;100064.25;1753035;82;21126;-64
2021/12/18 10:25:30;;;;;;;2.70;0.50;;;;;;;0.33;100.00;100062.08;1753109;82;21031;-63
2021/12/18 10:28:16;;;;;;;1.75;0.50;;;;;;;0.34;100.00;100060.56;1747102;82;21553;-66
2021/12/18 10:30:47;;;;;;;1.42;0.50;;;;;;;0.36;100.00;100053.14;1740156;82;21011;-65
2021/12/18 10:33:14;;;;;;;2.95;1.17;;;;;;;0.43;100.00;100050.49;1752778;82;20999;-64
2021/12/18 10:35:50;;;;;;;2.25;0.80;;;;;;;0.46;100.00;100049.58;1753024;82;21098;-65
2021/12/18 10:38:47;;;;;;;1.50;0.40;;;;;;;0.52;100.00;100049.83;1753202;82;21007;-64
2021/12/18 10:41:32;;;;;;;1.82;0.60;;;;;;;0.53;100.00;100045.62;1753037;81;21465;-64
2021/12/18 10:44:08;;;;;;;1.32;0.50;;;;;;;0.57;100.00;100051.41;1753391;82;20999;-65
2021/12/18 10:46:41;;;;;;;1.22;0.70;;;;;;;0.55;100.00;100048.91;1752855;82;21071;-64
2021/12/18 10:49:14;;;;;;;1.00;0.53;;;;;;;0.58;100.00;100055.20;1753017;82;21015;-64
2021/12/18 10:51:43;;;;;;;1.35;0.55;;;;;;;0.58;100.00;100049.02;1752954;81;21102;-64
2021/12/18 10:54:18;;;;;;;1.40;0.62;;;;;;;0.59;100.00;100045.32;1753202;82;21526;-64
2021/12/18 10:56:47;;;;;;;1.82;0.88;;;;;;;0.58;100.00;100045.83;1753049;81;21016;-64
2021/12/18 10:59:34;;;;;;;2.10;0.75;;;;;;;0.56;100.00;100043.05;1753370;82;21546;-64
2021/12/18 11:02:04;;;;;;;;;;;;;;;0.52;100.00;100038.60;1751383;82;21031;-65
2021/12/18 11:04:35;;;;;;;2.95;1.47;;;;;;;0.48;100.00;100044.88;1753133;82;20142;-64
2021/12/18 11:07:18;;;;;;;1.77;0.82;;;;;;;0.41;100.00;100047.20;1753216;82;21023;-65
2021/12/18 11:15:17;;;;;;;2.02;0.98;;;;;;;0.40;100.00;100057.59;1723601;83;21058;-64
2021/12/18 11:17:46;;;;;;;1.65;0.90;;;;;;;0.35;100.00;100043.98;1695892;83;21629;-64
2021/12/18 11:20:12;;;;;;;4.30;1.52;;;;;;;0.39;100.00;100040.69;1723387;83;21409;-65
2021/12/18 11:22:39;;;;;;;3.87;1.62;;;;;;;0.37;100.00;100036.56;1723180;83;21090;-64
2021/12/18 11:25:07;;;;;;;;;;;;;;;0.36;100.00;100033.05;1725398;83;21510;-64
2021/12/18 11:27:35;;;;;;;2.67;1.50;;;;;;;0.37;100.00;100040.08;1722990;83;20133;-65
2021/12/18 11:30:08;;;;;;;3.92;1.70;;;;;;;0.31;100.00;100041.38;1723672;83;21525;-64
2021/12/18 11:32:43;;;;;;;3.77;1.62;;;;;;;0.33;100.00;100041.49;1723327;83;21129;-64
2021/12/18 11:35:19;;;;;;;7.55;3.72;;;;;;;0.30;100.00;100043.23;1722855;83;21526;-64
2021/12/18 11:37:58;;;;;;;9.73;3.58;;;;;;;0.27;100.00;100038.27;1723365;83;21031;-64
2021/12/18 11:40:27;;;;;;;5.05;2.55;;;;;;;0.21;100.00;100035.56;1723435;83;21027;-64
2021/12/18 11:42:54;;;;;;;5.67;2.70;;;;;;;0.18;100.00;100034.09;1723104;83;21074;-65
2021/12/18 11:45:20;;;;;;;4.58;2.60;;;;;;;0.14;100.00;100033.36;1723632;83;21103;-65
2021/12/18 11:47:56;;;;;;;5.80;2.85;;;;;;;0.03;100.00;100024.03;1672191;83;21580;-65
2021/12/18 11:50:28;;;;;;;6.90;3.58;;;;;;;-0.02;100.00;100033.16;1731188;82;21038;-63
2021/12/18 11:53:11;;;;;;;5.10;2.60;;;;;;;0.03;100.00;100026.71;1748127;81;21522;-63
2021/12/18 11:55:53;;;;;;;3.87;2.40;;;;;;;0.04;100.00;100019.52;1748485;82;21003;-64
2021/12/18 11:58:33;;;;;;;7.20;2.83;;;;;;;-0.02;100.00;100021.11;1753174;82;21015;-64
2021/12/18 12:01:04;;;;;;;6.12;2.92;;;;;;;-0.01;100.00;100023.60;1749503;82;21027;-62
2021/12/18 12:03:42;;;;;;;6.35;3.35;;;;;;;0.02;100.00;100021.55;1741724;82;20955;-65
2021/12/18 12:06:33;;;;;;;5.95;3.50;;;;;;;-0.01;100.00;100015.58;1725076;82;21097;-64
2021/12/18 12:09:32;;;;;;;6.53;3.40;;;;;;;0.02;100.00;100018.87;1723254;83;21522;-64
2021/12/18 12:11:58;;;;;;;5.37;3.50;;;;;;;0.08;100.00;100022.91;1711904;83;21067;-64
2021/12/18 12:14:28;;;;;;;5.33;3.22;;;;;;;0.03;100.00;100016.00;1709883;83;21514;-64
2021/12/18 12:17:05;;;;;;;5.60;3.42;;;;;;;0.02;100.00;100017.53;1709478;83;21562;-64
2021/12/18 12:19:39;;;;;;;5.30;3.00;;;;;;;0.01;100.00;100010.00;1705856;84;21063;-64
2021/12/18 12:22:26;;;;;;;5.00;2.80;;;;;;;0.04;100.00;100012.83;1709607;84;21044;-64
2021/12/18 12:24:56;;;;;;;5.07;3.47;;;;;;;0.08;100.00;100014.05;1710064;84;21104;-64
2021/12/18 12:27:39;;;;;;;6.72;3.50;;;;;;;0.04;100.00;100013.63;1709600;83;21115;-64
2021/12/18 12:30:31;;;;;;;5.65;3.33;;;;;;;0.04;100.00;100014.16;1709711;83;21076;-64